createdAt,value
2023-05-06T11:01:55.939Z,108.40
2023-05-06T11:03:28.064Z,110.80
2023-05-06T11:05:00.399Z,109.20
2023-05-06T11:06:44.679Z,102.60
2023-05-06T11:08:22.443Z,110.50
2023-05-06T11:10:01.124Z,108.00
2023-05-06T11:11:53.030Z,105.40
2023-05-06T11:13:29.196Z,100.00
2023-05-06T11:15:38.039Z,91.20
2023-05-06T11:17:28.854Z,111.50
2023-05-06T11:19:00.756Z,103.50
2023-05-06T11:20:32.702Z,102.20
2023-05-06T11:22:05.611Z,103.80
2023-05-06T11:23:47.088Z,85.80
2023-05-06T11:25:41.576Z,102.60
2023-05-06T11:27:16.736Z,106.40
2023-05-06T11:28:49.731Z,137.00
2023-05-06T11:30:21.693Z,137.50
2023-05-06T11:31:54.423Z,124.25
2023-05-06T11:33:26.289Z,109.50
2023-05-06T11:34:58.183Z,130.25
2023-05-06T11:36:29.986Z,111.00
2023-05-06T11:38:01.989Z,109.40
2023-05-06T11:39:39.883Z,95.75
2023-05-06T11:41:13.102Z,97.80
2023-05-06T11:42:44.966Z,109.40
2023-05-06T11:44:34.160Z,123.20
2023-05-06T11:46:06.598Z,91.50
2023-05-06T11:47:38.581Z,94.50
2023-05-06T11:49:13.718Z,97.00
2023-05-06T11:50:48.890Z,89.25
2023-05-06T11:52:23.517Z,84.25
2023-05-06T11:54:07.084Z,69.50
2023-05-06T11:55:39.257Z,70.25
2023-05-06T11:57:11.800Z,67.75
2023-05-06T11:58:44.265Z,75.00
2023-05-06T12:00:16.417Z,69.75
2023-05-06T12:01:48.858Z,75.50
2023-05-06T12:03:21.261Z,71.00
2023-05-06T12:04:53.837Z,73.00
2023-05-06T12:06:35.330Z,78.00
2023-05-06T12:08:16.365Z,71.25
2023-05-06T12:09:55.882Z,75.75
2023-05-06T12:11:27.901Z,84.25
2023-05-06T12:12:59.891Z,79.50
2023-05-06T12:14:32.223Z,81.00
2023-05-06T12:16:04.321Z,82.00
2023-05-06T12:17:36.330Z,76.00
2023-05-06T12:19:08.228Z,80.50
2023-05-06T12:20:40.155Z,80.75
2023-05-06T12:22:22.082Z,80.25
2023-05-06T12:23:59.535Z,82.25
2023-05-06T12:25:31.470Z,78.25
2023-05-06T12:27:03.351Z,78.75
2023-05-06T12:28:36.268Z,84.50
2023-05-06T12:30:09.566Z,78.00
2023-05-06T12:31:41.819Z,78.25
2023-05-06T12:33:13.802Z,79.75
2023-05-06T12:34:45.712Z,81.50
2023-05-06T12:36:20.760Z,89.75
2023-05-06T12:37:52.688Z,94.75
2023-05-06T12:39:34.149Z,94.00
2023-05-06T12:41:07.856Z,98.25
2023-05-06T12:42:39.800Z,100.50
2023-05-06T12:44:31.531Z,112.75
2023-05-06T12:46:07.382Z,103.60
2023-05-06T12:47:39.483Z,98.80
2023-05-06T12:49:11.406Z,94.75
2023-05-06T12:50:46.522Z,92.50
2023-05-06T12:52:22.871Z,97.60
2023-05-06T12:53:54.933Z,105.80
2023-05-06T12:55:27.013Z,101.40
2023-05-06T12:56:58.890Z,96.20
2023-05-06T12:58:30.973Z,105.00
2023-05-06T13:00:02.982Z,102.40
2023-05-06T13:01:35.677Z,113.20
2023-05-06T13:03:07.818Z,105.80
2023-05-06T13:04:39.998Z,113.25
2023-05-06T13:06:12.607Z,110.25
2023-05-06T13:07:44.486Z,116.75
2023-05-06T13:09:16.404Z,116.75
2023-05-06T13:10:48.274Z,118.75
2023-05-06T13:12:20.189Z,120.75
2023-05-06T13:13:52.124Z,131.75
2023-05-06T13:15:24.526Z,125.00
2023-05-06T13:16:56.427Z,133.25
2023-05-06T13:18:28.850Z,130.00
2023-05-06T13:20:01.859Z,129.25
2023-05-06T13:21:34.682Z,118.25
2023-05-06T13:23:06.533Z,135.25
2023-05-06T13:24:38.530Z,132.00
2023-05-06T13:26:10.427Z,125.50
2023-05-06T13:27:42.323Z,144.50
2023-05-06T13:29:14.312Z,134.75
2023-05-06T13:30:46.262Z,134.75
2023-05-06T13:32:18.207Z,115.00
2023-05-06T13:33:50.242Z,133.75
2023-05-06T13:35:22.046Z,118.75
2023-05-06T13:36:54.877Z,125.25
2023-05-06T13:38:26.755Z,129.50
2023-05-06T13:39:58.637Z,130.50
2023-05-06T13:41:30.557Z,120.75
2023-05-06T13:43:02.498Z,156.00
2023-05-06T13:44:34.323Z,124.75
2023-05-06T13:46:06.475Z,141.25
2023-05-06T13:47:38.423Z,127.00
2023-05-06T13:49:10.414Z,135.50
2023-05-06T13:50:42.825Z,125.25
2023-05-06T13:52:14.672Z,108.25
2023-05-06T13:53:46.589Z,117.00
2023-05-06T13:55:19.552Z,116.40
2023-05-06T13:56:51.526Z,107.80
2023-05-06T13:58:23.430Z,113.60
2023-05-06T13:59:55.417Z,104.60
2023-05-06T14:01:27.390Z,106.80
2023-05-06T14:02:59.325Z,102.40
2023-05-06T14:04:31.497Z,108.20
2023-05-06T14:06:03.461Z,108.80
2023-05-06T14:07:35.315Z,114.20
2023-05-06T14:09:07.541Z,107.00
2023-05-06T14:10:39.477Z,112.40
2023-05-06T14:12:11.465Z,118.00
2023-05-06T14:13:43.363Z,125.25
2023-05-06T14:15:15.385Z,120.50
2023-05-06T14:16:47.707Z,123.75
2023-05-06T14:18:19.628Z,120.00
2023-05-06T14:19:51.506Z,135.75
2023-05-06T14:21:23.425Z,137.00
2023-05-06T14:22:55.351Z,144.50
2023-05-06T14:24:27.231Z,128.75
2023-05-06T14:25:59.079Z,142.25
2023-05-06T14:27:31.244Z,144.50
2023-05-06T14:29:03.132Z,138.25
2023-05-06T14:30:35.868Z,133.75
2023-05-06T14:32:07.879Z,136.00
2023-05-06T14:33:39.779Z,137.75
2023-05-06T14:35:11.913Z,149.75
2023-05-06T14:36:44.102Z,141.75
2023-05-06T14:38:16.045Z,137.25
2023-05-06T14:39:48.021Z,143.50
2023-05-06T14:41:19.966Z,133.75
2023-05-06T14:42:53.656Z,143.75
2023-05-06T14:44:25.607Z,142.25
2023-05-06T14:45:57.474Z,139.75
2023-05-06T14:47:29.349Z,134.75
2023-05-06T14:49:01.180Z,135.25
2023-05-06T14:50:33.118Z,145.00
2023-05-06T14:52:05.070Z,131.50
2023-05-06T14:53:37.032Z,140.00
2023-05-06T14:55:09.793Z,143.25
2023-05-06T14:56:42.355Z,130.75
2023-05-06T14:58:14.240Z,113.25
2023-05-06T14:59:46.409Z,119.75
2023-05-06T15:01:18.340Z,131.50
2023-05-06T15:02:50.309Z,134.50
2023-05-06T15:04:22.280Z,131.25
2023-05-06T15:05:54.203Z,127.25
2023-05-06T15:07:26.235Z,131.25
2023-05-06T15:08:58.189Z,127.00
2023-05-06T15:10:29.997Z,122.25
2023-05-06T15:12:02.081Z,126.75
2023-05-06T15:13:33.942Z,125.75
2023-05-06T15:15:06.680Z,129.00
2023-05-06T15:16:38.640Z,122.75
2023-05-06T15:18:10.892Z,141.50
2023-05-06T15:19:42.798Z,121.50
2023-05-06T15:21:14.817Z,146.25
2023-05-06T15:22:46.664Z,127.50
2023-05-06T15:24:18.749Z,130.75
2023-05-06T15:25:51.202Z,129.50
2023-05-06T15:27:23.109Z,145.75
2023-05-06T15:28:54.917Z,128.50
2023-05-06T15:30:26.881Z,133.00
2023-05-06T15:31:58.889Z,124.00
2023-05-06T15:33:30.861Z,138.00
2023-05-06T15:35:05.058Z,128.75
2023-05-06T15:36:37.408Z,121.25
2023-05-06T15:38:09.267Z,120.00
2023-05-06T15:39:41.298Z,118.25
2023-05-06T15:41:13.118Z,130.25
2023-05-06T15:42:45.102Z,147.00
2023-05-06T15:44:17.245Z,136.25
2023-05-06T15:45:49.215Z,136.75
2023-05-06T15:47:21.427Z,136.50
2023-05-06T15:49:09.056Z,139.00
2023-05-06T15:50:45.205Z,134.75
2023-05-06T15:52:17.067Z,120.25
2023-05-06T15:53:48.993Z,132.00
2023-05-06T15:55:21.007Z,137.00
2023-05-06T15:56:52.817Z,143.25
2023-05-06T15:58:24.761Z,126.25
2023-05-06T15:59:57.009Z,144.25
2023-05-06T16:01:54.093Z,140.00
2023-05-06T16:03:21.178Z,132.75
2023-05-06T16:04:53.536Z,139.75
2023-05-06T16:06:25.996Z,131.50
2023-05-06T16:07:57.876Z,143.00
2023-05-06T16:09:29.970Z,136.50
2023-05-06T16:11:01.851Z,135.75
2023-05-06T16:12:33.907Z,109.25
2023-05-06T16:14:06.173Z,134.00
2023-05-06T16:15:38.089Z,129.25
2023-05-06T16:17:09.963Z,136.00
2023-05-06T16:18:41.816Z,119.50
2023-05-06T16:20:13.871Z,133.00
2023-05-06T16:21:45.910Z,126.75
2023-05-06T16:23:19.478Z,130.50
2023-05-06T16:24:51.365Z,122.75
2023-05-06T16:26:23.277Z,144.75
2023-05-06T16:27:56.088Z,134.50
2023-05-06T16:29:28.165Z,142.75
2023-05-06T16:31:02.267Z,138.00
2023-05-06T16:32:34.312Z,132.75
2023-05-06T16:34:06.349Z,136.25
2023-05-06T16:35:38.289Z,150.50
2023-05-06T16:37:10.133Z,132.75
2023-05-06T16:38:42.057Z,135.75
2023-05-06T16:40:14.796Z,130.50
2023-05-06T16:41:46.875Z,145.00
2023-05-06T16:43:19.078Z,146.00
2023-05-06T16:44:51.694Z,145.75
2023-05-06T16:46:24.708Z,195.75
2023-05-06T16:47:56.797Z,176.50
2023-05-06T16:49:28.748Z,178.00
2023-05-06T16:51:00.734Z,162.25
2023-05-06T16:52:32.638Z,148.00
2023-05-06T16:54:04.639Z,140.25
2023-05-06T16:55:36.700Z,160.25
2023-05-06T16:57:08.609Z,165.00
2023-05-06T16:58:40.568Z,148.75
2023-05-06T17:00:13.889Z,160.75
2023-05-06T17:01:45.873Z,144.75
2023-05-06T17:03:17.762Z,154.00
2023-05-06T17:04:49.634Z,152.25
2023-05-06T17:06:22.197Z,150.50
2023-05-06T17:07:54.057Z,160.00
2023-05-06T17:09:25.987Z,160.00
2023-05-06T17:10:57.835Z,143.75
2023-05-06T17:12:29.787Z,142.00
2023-05-06T17:14:01.603Z,146.50
2023-05-06T17:15:33.448Z,159.00
2023-05-06T17:17:05.737Z,138.75
2023-05-06T17:18:37.788Z,159.00
2023-05-06T17:20:10.193Z,157.50
2023-05-06T17:21:42.636Z,138.50
2023-05-06T17:23:15.120Z,148.25
2023-05-06T17:24:47.126Z,154.75
2023-05-06T17:26:19.050Z,132.75
2023-05-06T17:27:51.052Z,159.50
2023-05-06T17:29:22.909Z,146.00
2023-05-06T17:30:54.904Z,143.00
2023-05-06T17:32:26.838Z,140.75
2023-05-06T17:33:58.766Z,165.25
2023-05-06T17:35:30.621Z,156.75
2023-05-06T17:37:04.621Z,151.75
2023-05-06T17:38:36.646Z,158.25
2023-05-06T17:40:08.979Z,151.50
2023-05-06T17:41:41.035Z,163.00
2023-05-06T17:43:12.949Z,146.00
2023-05-06T17:44:44.846Z,157.50
2023-05-06T17:46:19.693Z,167.75
2023-05-06T17:47:51.705Z,170.00
2023-05-06T17:49:23.640Z,176.50
2023-05-06T17:51:00.692Z,160.75
2023-05-06T17:52:32.551Z,164.00
2023-05-06T17:54:04.500Z,165.00
2023-05-06T17:55:36.452Z,165.00
2023-05-06T17:57:08.322Z,160.00
2023-05-06T17:58:40.225Z,162.50
2023-05-06T18:00:12.545Z,200.50
2023-05-06T18:01:46.638Z,160.75
2023-05-06T18:03:18.641Z,171.00
2023-05-06T18:04:50.570Z,175.25
2023-05-06T18:06:22.472Z,153.00
2023-05-06T18:07:54.391Z,154.75
2023-05-06T18:09:26.294Z,150.00
2023-05-06T18:10:58.282Z,169.25
2023-05-06T18:12:30.926Z,136.50
2023-05-06T18:14:02.819Z,166.25
2023-05-06T18:15:34.698Z,168.50
2023-05-06T18:17:06.528Z,158.25
2023-05-06T18:18:38.479Z,158.75
2023-05-06T18:20:10.978Z,181.50
2023-05-06T18:21:42.886Z,201.25
2023-05-06T18:23:14.753Z,185.25
2023-05-06T18:24:46.880Z,168.00
2023-05-06T18:26:31.716Z,166.25
2023-05-06T18:28:11.055Z,172.50
2023-05-06T18:29:42.879Z,159.00
2023-05-06T18:31:14.936Z,164.00
2023-05-06T18:32:48.243Z,156.25
2023-05-06T18:34:22.011Z,164.75
2023-05-06T18:35:53.826Z,164.75
2023-05-06T18:37:27.657Z,167.00
2023-05-06T18:38:59.556Z,164.50
2023-05-06T18:40:31.595Z,164.00
2023-05-06T18:42:04.040Z,160.00
2023-05-06T18:43:35.928Z,157.75
2023-05-06T18:45:08.730Z,172.75
2023-05-06T18:46:40.968Z,180.00
2023-05-06T18:48:12.802Z,189.00
2023-05-06T18:49:44.851Z,213.00
2023-05-06T18:51:17.408Z,199.00
2023-05-06T18:52:49.401Z,180.50
2023-05-06T18:54:21.357Z,166.75
2023-05-06T18:55:53.294Z,164.50
2023-05-06T18:57:26.844Z,166.50
2023-05-06T18:58:58.728Z,164.75
2023-05-06T19:00:30.850Z,154.00
2023-05-06T19:02:03.831Z,163.25
2023-05-06T19:03:36.615Z,157.00
2023-05-06T19:05:09.183Z,165.00
2023-05-06T19:06:41.290Z,152.75
2023-05-06T19:08:13.928Z,161.75
2023-05-06T19:09:45.818Z,154.75
2023-05-06T19:11:19.308Z,148.75
2023-05-06T19:12:51.632Z,151.75
2023-05-06T19:14:24.981Z,147.75
2023-05-06T19:15:57.457Z,157.50
2023-05-06T19:17:29.374Z,160.75
2023-05-06T19:19:02.928Z,153.00
2023-05-06T19:20:34.816Z,163.25
2023-05-06T19:22:06.637Z,146.75
2023-05-06T19:23:38.602Z,172.50
2023-05-06T19:25:11.308Z,142.00
2023-05-06T19:26:43.357Z,153.00
2023-05-06T19:28:15.247Z,152.75
2023-05-06T19:29:48.379Z,158.50
2023-05-06T19:31:20.307Z,150.75
2023-05-06T19:32:52.328Z,144.75
2023-05-06T19:34:24.786Z,135.50
2023-05-06T19:35:56.671Z,146.25
2023-05-06T19:37:30.337Z,154.50
2023-05-06T19:39:02.311Z,146.00
2023-05-06T19:40:35.388Z,156.00
2023-05-06T19:42:07.304Z,129.25
2023-05-06T19:43:43.124Z,149.75
2023-05-06T19:45:16.718Z,148.50
2023-05-06T19:46:53.254Z,140.75
2023-05-06T19:48:25.212Z,140.75
2023-05-06T19:49:57.282Z,150.75
2023-05-06T19:51:29.243Z,155.75
2023-05-06T19:53:01.107Z,150.75
2023-05-06T19:54:32.996Z,144.75
2023-05-06T19:56:11.750Z,155.00
2023-05-06T19:57:43.720Z,160.50
2023-05-06T19:59:17.646Z,146.25
2023-05-06T20:00:49.774Z,153.75
2023-05-06T20:02:21.783Z,147.75
2023-05-06T20:03:55.247Z,138.25
2023-05-06T20:05:30.965Z,144.00
2023-05-06T20:07:02.822Z,150.25
2023-05-06T20:08:35.608Z,138.50
2023-05-06T20:10:10.038Z,133.50
2023-05-06T20:11:41.942Z,137.25
2023-05-06T20:13:13.849Z,133.25
2023-05-06T20:14:46.031Z,142.25
2023-05-06T20:16:18.066Z,151.25
2023-05-06T20:17:49.969Z,142.50
2023-05-06T20:19:22.694Z,144.00
2023-05-06T20:20:54.587Z,130.25
2023-05-06T20:22:26.583Z,145.50
2023-05-06T20:23:58.454Z,178.00
2023-05-06T20:25:30.519Z,209.00
2023-05-06T20:27:02.531Z,163.25
2023-05-06T20:28:37.865Z,157.50
2023-05-06T20:30:09.951Z,165.25
2023-05-06T20:31:41.891Z,143.00
2023-05-06T20:33:13.786Z,148.75
2023-05-06T20:34:45.787Z,157.75
2023-05-06T20:36:17.656Z,235.00
2023-05-06T20:37:49.506Z,204.67
2023-05-06T20:39:22.218Z,183.25
2023-05-06T20:40:54.148Z,163.75
2023-05-06T20:42:26.008Z,182.25
2023-05-06T20:43:57.903Z,163.25
2023-05-06T20:45:31.292Z,174.50
2023-05-06T20:47:03.802Z,151.50
2023-05-06T20:48:35.712Z,150.75
2023-05-06T20:50:07.780Z,155.25
2023-05-06T20:51:39.705Z,160.25
2023-05-06T20:53:11.821Z,146.00
2023-05-06T20:54:44.006Z,141.25
2023-05-06T20:56:21.004Z,137.50
2023-05-06T20:57:52.936Z,144.50
2023-05-06T20:59:25.091Z,143.75
2023-05-06T21:00:57.716Z,149.25
2023-05-06T21:02:32.923Z,136.25
2023-05-06T21:04:06.575Z,139.50
2023-05-06T21:05:38.448Z,138.75
2023-05-06T21:07:10.318Z,133.25
2023-05-06T21:08:43.155Z,135.75
2023-05-06T21:10:15.136Z,139.25
2023-05-06T21:11:46.958Z,123.25
2023-05-06T21:13:18.843Z,128.80
2023-05-06T21:14:50.711Z,129.50
2023-05-06T21:16:22.639Z,135.50
2023-05-06T21:17:54.620Z,148.25
2023-05-06T21:19:26.516Z,142.00
2023-05-06T21:20:58.369Z,129.50
2023-05-06T21:22:30.252Z,127.50
2023-05-06T21:24:02.160Z,138.50
2023-05-06T21:25:33.999Z,111.75
2023-05-06T21:27:05.993Z,126.75
2023-05-06T21:28:37.992Z,125.00
2023-05-06T21:30:10.632Z,131.25
2023-05-06T21:31:42.486Z,125.75
2023-05-06T21:33:14.401Z,131.25
2023-05-06T21:34:46.364Z,112.50
2023-05-06T21:36:18.219Z,129.25
2023-05-06T21:37:50.980Z,124.00
2023-05-06T21:39:22.892Z,123.75
2023-05-06T21:40:55.925Z,122.25
2023-05-06T21:42:27.833Z,111.50
2023-05-06T21:43:59.688Z,121.20
2023-05-06T21:45:31.548Z,124.00
2023-05-06T21:47:03.426Z,128.00
2023-05-06T21:48:35.279Z,133.25
2023-05-06T21:50:07.586Z,123.25
2023-05-06T21:51:39.441Z,122.75
2023-05-06T21:53:11.373Z,125.75
2023-05-06T21:54:46.172Z,114.00
2023-05-06T21:56:18.474Z,128.50
2023-05-06T21:57:50.493Z,124.75
2023-05-06T21:59:22.328Z,117.50
2023-05-06T22:00:54.185Z,125.25
2023-05-06T22:02:26.354Z,115.25
2023-05-06T22:03:58.374Z,122.75
2023-05-06T22:05:30.314Z,116.00
2023-05-06T22:07:02.272Z,111.50
2023-05-06T22:08:34.128Z,121.40
2023-05-06T22:10:06.587Z,117.80
2023-05-06T22:11:38.715Z,112.00
2023-05-06T22:13:11.149Z,111.20
2023-05-06T22:14:43.045Z,127.50
2023-05-06T22:16:14.966Z,123.40
2023-05-06T22:17:46.912Z,108.80
2023-05-06T22:19:19.358Z,109.00
2023-05-06T22:20:52.552Z,103.60
2023-05-06T22:22:24.416Z,99.60
2023-05-06T22:23:56.452Z,113.60
2023-05-06T22:25:28.279Z,111.80
2023-05-06T22:27:00.161Z,110.20
2023-05-06T22:28:32.004Z,115.80
2023-05-06T22:30:04.239Z,112.60
2023-05-06T22:31:36.219Z,114.60
2023-05-06T22:33:08.161Z,114.60
2023-05-06T22:34:40.519Z,112.20
